createdAt,value
2023-01-18T00:00:23.379Z,6.06
2023-01-18T00:02:50.361Z,6.01
2023-01-18T00:05:17.364Z,6.04
2023-01-18T00:07:44.325Z,6.01
2023-01-18T00:10:11.436Z,5.99
2023-01-18T00:12:38.539Z,5.66
2023-01-18T00:15:06.190Z,5.46
2023-01-18T00:17:33.105Z,5.58
2023-01-18T00:19:59.965Z,5.65
2023-01-18T00:22:26.969Z,5.64
2023-01-18T00:24:53.738Z,5.65
2023-01-18T00:27:20.604Z,5.67
2023-01-18T00:29:47.525Z,5.67
2023-01-18T00:32:14.460Z,5.73
2023-01-18T00:34:41.348Z,5.72
2023-01-18T00:37:08.274Z,5.74
2023-01-18T00:39:35.089Z,5.70
2023-01-18T00:42:01.937Z,5.74
2023-01-18T00:44:28.796Z,5.67
2023-01-18T00:46:55.640Z,5.75
2023-01-18T00:49:23.256Z,5.32
2023-01-18T00:51:50.304Z,5.19
2023-01-18T00:54:17.639Z,5.33
2023-01-18T00:56:44.778Z,5.06
2023-01-18T00:59:11.594Z,4.97
2023-01-18T01:01:38.632Z,5.17
2023-01-18T01:04:05.663Z,5.25
2023-01-18T01:06:34.876Z,5.18
2023-01-18T01:09:01.702Z,5.07
2023-01-18T01:11:28.643Z,4.87
2023-01-18T01:13:55.461Z,4.92
2023-01-18T01:16:23.380Z,5.04
2023-01-18T01:18:50.415Z,5.20
2023-01-18T01:21:17.330Z,5.19
2023-01-18T01:23:44.228Z,5.28
2023-01-18T01:26:11.623Z,5.29
2023-01-18T01:28:43.355Z,5.39
2023-01-18T01:31:15.520Z,5.22
2023-01-18T01:33:42.560Z,4.76
2023-01-18T01:36:13.654Z,4.87
2023-01-18T01:38:40.749Z,4.97
2023-01-18T01:41:12.080Z,5.08
2023-01-18T01:43:45.014Z,4.80
2023-01-18T01:46:44.065Z,4.65
2023-01-18T01:49:24.816Z,4.53
2023-01-18T01:51:55.641Z,4.46
2023-01-18T01:54:29.895Z,4.49
2023-01-18T01:57:06.960Z,4.77
2023-01-18T01:59:39.642Z,5.04
2023-01-18T02:02:07.608Z,5.25
2023-01-18T02:04:35.789Z,5.44
2023-01-18T02:07:02.830Z,5.52
2023-01-18T02:09:29.862Z,5.62
2023-01-18T02:11:56.944Z,5.65
2023-01-18T02:14:26.752Z,5.34
2023-01-18T02:17:30.333Z,5.23
2023-01-18T02:20:34.838Z,5.42
2023-01-18T02:23:22.982Z,5.64
2023-01-18T02:25:55.777Z,5.73
2023-01-18T02:28:36.761Z,5.76
2023-01-18T02:34:24.822Z,5.85
2023-01-18T02:37:12.766Z,5.67
2023-01-18T02:39:55.652Z,5.23
2023-01-18T02:42:27.417Z,5.06
2023-01-18T02:44:54.257Z,5.07
2023-01-18T02:47:23.407Z,5.19
2023-01-18T02:49:50.382Z,5.33
2023-01-18T02:52:41.352Z,5.48
2023-01-18T02:55:17.831Z,5.55
2023-01-18T02:57:45.989Z,5.61
2023-01-18T03:00:15.380Z,5.70
2023-01-18T03:02:42.613Z,5.79
2023-01-18T03:05:11.886Z,5.77
2023-01-18T03:07:58.857Z,5.73
2023-01-18T03:10:31.448Z,5.56
2023-01-18T03:13:13.026Z,5.64
2023-01-18T03:15:49.239Z,5.53
2023-01-18T03:18:42.058Z,5.51
2023-01-18T03:21:08.907Z,5.58
2023-01-18T03:23:39.956Z,5.59
2023-01-18T03:26:19.105Z,5.53
2023-01-18T03:28:49.241Z,5.54
2023-01-18T03:31:42.308Z,5.59
2023-01-18T03:34:43.528Z,5.51
2023-01-18T03:37:16.286Z,5.29
2023-01-18T03:39:46.973Z,5.44
2023-01-18T03:42:19.726Z,5.49
2023-01-18T03:45:31.479Z,5.55
2023-01-18T03:47:59.018Z,5.57
2023-01-18T03:50:51.943Z,5.53
2023-01-18T03:53:32.646Z,5.61
2023-01-18T03:56:10.117Z,5.57
2023-01-18T03:58:37.132Z,5.54
2023-01-18T04:01:04.755Z,5.51
2023-01-18T04:03:33.453Z,5.41
2023-01-18T04:06:02.931Z,5.31
2023-01-18T04:08:29.822Z,5.33
2023-01-18T04:10:56.722Z,5.27
2023-01-18T04:13:23.634Z,5.28
2023-01-18T04:15:50.675Z,5.19
2023-01-18T04:18:17.479Z,5.16
2023-01-18T04:20:44.358Z,5.13
2023-01-18T04:23:11.267Z,5.19
2023-01-18T04:25:38.249Z,5.06
2023-01-18T04:28:05.300Z,5.02
2023-01-18T04:30:32.415Z,5.00
2023-01-18T04:32:59.712Z,5.01
2023-01-18T04:35:27.313Z,5.20
2023-01-18T04:37:54.221Z,5.36
2023-01-18T04:40:21.044Z,5.49
2023-01-18T04:42:54.334Z,5.55
2023-01-18T04:45:21.308Z,5.59
2023-01-18T04:47:48.181Z,5.66
2023-01-18T04:50:15.147Z,5.69
2023-01-18T04:52:42.056Z,5.61
2023-01-18T04:55:09.430Z,5.70
2023-01-18T04:57:36.320Z,5.63
2023-01-18T05:00:03.941Z,5.73
2023-01-18T05:02:31.023Z,5.72
2023-01-18T05:04:57.964Z,5.65
2023-01-18T05:07:25.528Z,5.67
2023-01-18T05:09:52.600Z,5.77
2023-01-18T05:12:19.442Z,5.89
2023-01-18T05:14:46.335Z,5.91
2023-01-18T05:17:13.209Z,5.70
2023-01-18T05:19:40.155Z,5.86
2023-01-18T05:22:09.963Z,5.94
2023-01-18T05:24:36.873Z,5.88
2023-01-18T05:27:03.933Z,5.78
2023-01-18T05:29:30.898Z,5.64
2023-01-18T05:31:57.682Z,5.53
2023-01-18T05:34:24.681Z,5.60
2023-01-18T05:36:51.541Z,5.52
2023-01-18T05:39:18.598Z,5.28
2023-01-18T05:41:45.516Z,5.10
2023-01-18T05:44:12.379Z,5.05
2023-01-18T05:46:39.342Z,5.05
2023-01-18T05:49:06.200Z,5.05
2023-01-18T05:51:33.102Z,5.09
2023-01-18T05:54:00.095Z,5.19
2023-01-18T05:56:26.971Z,5.29
2023-01-18T05:58:53.927Z,5.24
2023-01-18T06:01:21.132Z,5.32
2023-01-18T06:03:48.094Z,5.38
2023-01-18T06:06:14.978Z,5.37
2023-01-18T06:08:41.951Z,5.19
2023-01-18T06:11:10.430Z,5.05
2023-01-18T06:13:37.451Z,5.00
2023-01-18T06:16:04.664Z,4.94
2023-01-18T06:18:33.213Z,5.02
2023-01-18T06:21:02.354Z,5.06
2023-01-18T06:23:30.485Z,5.26
2023-01-18T06:25:57.933Z,5.26
2023-01-18T06:28:24.943Z,5.29
2023-01-18T06:30:56.111Z,5.27
2023-01-18T06:33:23.885Z,5.26
2023-01-18T06:35:51.331Z,5.25
2023-01-18T06:38:18.122Z,5.24
2023-01-18T06:40:45.089Z,5.22
2023-01-18T06:43:12.007Z,5.12
2023-01-18T06:45:38.986Z,5.12
2023-01-18T06:48:06.060Z,5.13
2023-01-18T06:50:32.969Z,5.21
2023-01-18T06:53:00.230Z,5.47
2023-01-18T06:55:27.336Z,5.62
2023-01-18T06:57:54.169Z,5.77
2023-01-18T07:00:21.496Z,5.85
2023-01-18T07:02:48.306Z,5.92
2023-01-18T07:05:15.303Z,5.75
2023-01-18T07:07:42.209Z,5.85
2023-01-18T07:10:09.843Z,5.94
2023-01-18T07:12:36.723Z,5.93
2023-01-18T07:15:20.217Z,5.90
2023-01-18T07:17:47.962Z,6.05
2023-01-18T07:20:14.841Z,5.98
2023-01-18T07:22:42.003Z,5.97
2023-01-18T07:25:09.474Z,6.05
2023-01-18T07:27:36.345Z,6.07
2023-01-18T07:30:03.385Z,5.92
2023-01-18T07:32:30.175Z,6.05
2023-01-18T07:34:59.394Z,6.15
2023-01-18T07:37:26.441Z,6.26
2023-01-18T07:39:53.233Z,6.29
2023-01-18T07:42:20.062Z,6.38
2023-01-18T07:44:46.906Z,6.48
2023-01-18T07:47:13.813Z,6.62
2023-01-18T07:49:40.604Z,6.59
2023-01-18T07:52:07.436Z,6.60
2023-01-18T07:54:34.287Z,6.79
2023-01-18T07:57:01.105Z,7.04
2023-01-18T07:59:27.913Z,7.36
2023-01-18T08:01:54.821Z,7.64
2023-01-18T08:04:21.614Z,7.88
2023-01-18T08:06:48.426Z,7.82
2023-01-18T08:09:15.257Z,7.78
2023-01-18T08:11:42.103Z,7.69
2023-01-18T08:14:08.958Z,7.60
2023-01-18T08:16:35.972Z,7.53
2023-01-18T08:19:02.921Z,7.45
2023-01-18T08:21:29.734Z,7.62
2023-01-18T08:23:56.694Z,7.72
2023-01-18T08:26:23.646Z,7.85
2023-01-18T08:28:50.573Z,7.95
2023-01-18T08:31:20.270Z,8.14
2023-01-18T08:33:48.266Z,8.13
2023-01-18T08:36:17.936Z,8.20
2023-01-18T08:38:48.955Z,8.38
2023-01-18T08:41:15.819Z,8.34
2023-01-18T08:43:42.897Z,8.26
2023-01-18T08:46:10.034Z,8.32
2023-01-18T08:48:36.989Z,8.22
2023-01-18T08:51:04.414Z,8.22
2023-01-18T08:53:31.885Z,8.22
2023-01-18T08:55:58.749Z,8.30
2023-01-18T08:58:25.804Z,8.38
2023-01-18T09:00:52.686Z,8.48
2023-01-18T09:03:21.215Z,8.60
2023-01-18T09:05:48.189Z,8.57
2023-01-18T09:08:15.442Z,8.48
2023-01-18T09:10:42.346Z,8.64
2023-01-18T09:13:09.196Z,8.86
2023-01-18T09:15:36.122Z,9.29
2023-01-18T09:18:03.058Z,9.47
2023-01-18T09:20:29.903Z,9.55
2023-01-18T09:22:56.969Z,9.63
2023-01-18T09:25:24.032Z,9.66
2023-01-18T09:27:50.860Z,9.78
2023-01-18T09:30:17.867Z,9.64
2023-01-18T09:32:44.763Z,9.55
2023-01-18T09:35:11.812Z,9.72
2023-01-18T09:37:38.739Z,9.67
2023-01-18T09:40:06.193Z,9.49
2023-01-18T09:42:41.364Z,9.69
2023-01-18T09:45:25.911Z,9.71
2023-01-18T09:48:00.257Z,9.64
2023-01-18T09:50:27.169Z,9.77
2023-01-18T09:53:05.766Z,9.60
2023-01-18T09:56:11.531Z,9.78
2023-01-18T09:59:05.243Z,9.73
2023-01-18T10:01:35.323Z,9.78
2023-01-18T10:04:05.208Z,9.85
2023-01-18T10:06:47.495Z,10.13
2023-01-18T10:09:28.944Z,10.20
2023-01-18T10:12:30.327Z,10.26
2023-01-18T10:15:06.750Z,10.60
2023-01-18T10:17:42.339Z,10.68
2023-01-18T10:20:25.286Z,10.85
2023-01-18T10:23:12.234Z,10.82
2023-01-18T10:26:06.466Z,10.72
2023-01-18T10:28:49.789Z,10.78
2023-01-18T10:31:22.623Z,10.29
2023-01-18T10:33:55.449Z,10.35
2023-01-18T10:36:30.549Z,10.78
2023-01-18T10:38:57.515Z,10.94
2023-01-18T10:41:33.281Z,10.91
2023-01-18T10:44:00.199Z,10.90
2023-01-18T10:46:27.115Z,10.54
2023-01-18T10:48:55.217Z,10.88
2023-01-18T10:51:30.883Z,10.91
2023-01-18T10:53:58.299Z,11.09
2023-01-18T10:56:27.235Z,11.08
2023-01-18T10:58:58.969Z,11.25
2023-01-18T11:01:35.152Z,11.25
2023-01-18T11:04:23.017Z,11.11
2023-01-18T11:06:56.133Z,11.12
2023-01-18T11:09:34.972Z,10.98
2023-01-18T11:12:43.236Z,11.22
2023-01-18T11:15:16.115Z,11.21
2023-01-18T11:17:52.080Z,10.97
2023-01-18T11:20:22.361Z,11.20
2023-01-18T11:22:55.344Z,10.81
2023-01-18T11:25:22.827Z,10.96
2023-01-18T11:27:50.032Z,11.23
2023-01-18T11:30:24.396Z,11.32
2023-01-18T11:32:52.402Z,11.35
2023-01-18T11:35:27.744Z,11.40
2023-01-18T11:38:02.991Z,11.66
2023-01-18T11:40:32.682Z,11.41
2023-01-18T11:43:25.077Z,11.56
2023-01-18T11:46:06.422Z,11.65
2023-01-18T11:48:50.138Z,11.79
2023-01-18T11:51:37.214Z,11.97
2023-01-18T11:54:43.331Z,11.64
2023-01-18T11:57:11.379Z,11.61
2023-01-18T11:59:42.214Z,11.89
2023-01-18T12:03:06.317Z,11.94
2023-01-18T12:06:06.327Z,11.81
2023-01-18T12:09:09.619Z,12.06
2023-01-18T12:12:19.352Z,11.82
2023-01-18T12:14:49.171Z,11.62
2023-01-18T12:17:40.926Z,11.63
2023-01-18T12:20:27.599Z,11.85
2023-01-18T12:22:57.271Z,12.03
2023-01-18T12:26:12.573Z,12.02
2023-01-18T12:28:51.941Z,11.84
2023-01-18T12:31:51.443Z,11.95
2023-01-18T12:34:26.873Z,12.02
2023-01-18T12:37:14.929Z,11.90
2023-01-18T12:40:00.385Z,11.83
2023-01-18T12:42:39.043Z,11.68
2023-01-18T12:45:22.284Z,11.67
2023-01-18T12:48:06.118Z,11.82
2023-01-18T12:50:36.244Z,11.91
2023-01-18T12:53:10.815Z,11.85
2023-01-18T12:55:40.356Z,11.81
2023-01-18T12:58:18.598Z,11.71
2023-01-18T13:00:52.292Z,11.60
2023-01-18T13:03:25.310Z,11.53
2023-01-18T13:06:02.311Z,11.52
2023-01-18T13:08:49.868Z,11.50
2023-01-18T13:11:22.737Z,11.49
2023-01-18T13:13:55.476Z,11.64
2023-01-18T13:16:49.739Z,11.73
2023-01-18T13:19:25.090Z,11.48
2023-01-18T13:22:04.729Z,11.37
2023-01-18T13:24:52.531Z,11.36
2023-01-18T13:27:19.493Z,11.30
2023-01-18T13:29:46.763Z,11.37
2023-01-18T13:32:35.814Z,11.38
2023-01-18T13:35:20.990Z,11.32
2023-01-18T13:37:56.212Z,11.24
2023-01-18T13:40:52.013Z,11.20
2023-01-18T13:43:41.951Z,11.24
2023-01-18T13:46:08.959Z,11.35
2023-01-18T13:48:44.733Z,11.41
2023-01-18T13:51:40.761Z,11.43
2023-01-18T13:54:10.138Z,11.14
2023-01-18T13:56:38.570Z,11.04
2023-01-18T13:59:29.546Z,10.93
2023-01-18T14:02:25.792Z,10.93
2023-01-18T14:05:06.447Z,10.85
2023-01-18T14:07:44.239Z,10.75
2023-01-18T14:10:24.762Z,10.66
2023-01-18T14:12:54.419Z,10.54
2023-01-18T14:15:44.894Z,10.50
2023-01-18T14:18:25.601Z,10.41
2023-01-18T14:21:29.492Z,10.30
2023-01-18T14:24:08.795Z,10.26
2023-01-18T14:26:39.131Z,10.16
2023-01-18T14:29:07.599Z,10.17
2023-01-18T14:31:39.043Z,10.23
2023-01-18T14:34:30.554Z,10.30
2023-01-18T14:36:57.907Z,10.30
2023-01-18T14:39:27.990Z,10.28
2023-01-18T14:42:02.204Z,10.25
2023-01-18T14:44:56.812Z,10.15
2023-01-18T14:47:30.749Z,10.02
2023-01-18T14:49:58.248Z,10.06
2023-01-18T14:52:29.841Z,9.94
2023-01-18T14:54:56.929Z,9.81
2023-01-18T14:57:25.076Z,9.81
2023-01-18T14:59:57.083Z,9.85
2023-01-18T15:02:25.993Z,9.86
2023-01-18T15:05:14.527Z,9.79
2023-01-18T15:07:41.585Z,9.76
2023-01-18T15:10:09.613Z,9.80
2023-01-18T15:12:38.453Z,9.76
2023-01-18T15:15:17.663Z,9.79
2023-01-18T15:17:44.591Z,9.77
2023-01-18T15:20:15.400Z,9.77
2023-01-18T15:22:45.268Z,9.67
2023-01-18T15:25:20.347Z,9.54
2023-01-18T15:27:49.674Z,9.48
2023-01-18T15:30:17.099Z,9.56
2023-01-18T15:32:44.409Z,9.66
2023-01-18T15:35:15.820Z,9.60
2023-01-18T15:37:42.851Z,9.39
2023-01-18T15:40:15.608Z,9.20
2023-01-18T15:42:58.167Z,9.14
2023-01-18T15:45:36.218Z,9.38
2023-01-18T15:48:09.481Z,9.33
2023-01-18T15:50:46.819Z,9.28
2023-01-18T15:53:25.602Z,9.29
2023-01-18T15:55:55.258Z,9.23
2023-01-18T15:58:31.976Z,9.12
2023-01-18T16:01:05.950Z,9.10
2023-01-18T16:03:37.179Z,9.08
2023-01-18T16:06:09.003Z,9.09
2023-01-18T16:08:36.055Z,8.97
2023-01-18T16:11:02.970Z,8.89
2023-01-18T16:13:30.574Z,8.87
2023-01-18T16:16:17.317Z,8.92
2023-01-18T16:18:51.614Z,9.04
2023-01-18T16:21:29.769Z,9.09
2023-01-18T16:23:57.253Z,9.14
2023-01-18T16:26:30.559Z,9.19
2023-01-18T16:29:15.601Z,9.01
2023-01-18T16:31:44.274Z,8.93
2023-01-18T16:34:17.016Z,8.96
2023-01-18T16:36:43.904Z,9.03
2023-01-18T16:39:10.821Z,9.02
2023-01-18T16:41:37.613Z,9.04
2023-01-18T16:44:04.857Z,8.85
2023-01-18T16:46:33.721Z,8.81
2023-01-18T16:49:00.564Z,8.74
2023-01-18T16:51:28.306Z,8.54
2023-01-18T16:53:55.507Z,8.46
2023-01-18T16:56:22.583Z,8.45
2023-01-18T16:58:49.696Z,8.41
2023-01-18T17:01:16.651Z,8.53
2023-01-18T17:03:43.738Z,8.63
2023-01-18T17:06:19.216Z,8.70
2023-01-18T17:08:46.507Z,8.70
2023-01-18T17:11:15.014Z,8.75
2023-01-18T17:13:42.499Z,8.75
2023-01-18T17:16:18.844Z,8.58
2023-01-18T17:18:46.868Z,8.61
2023-01-18T17:21:13.949Z,8.49
2023-01-18T17:23:40.858Z,8.58
2023-01-18T17:26:09.891Z,8.68
2023-01-18T17:28:36.826Z,8.71
2023-01-18T17:31:03.811Z,8.66
2023-01-18T17:33:30.679Z,8.51
2023-01-18T17:35:57.491Z,8.51
2023-01-18T17:38:27.886Z,8.38
2023-01-18T17:40:56.973Z,8.30
2023-01-18T17:43:33.379Z,8.20
2023-01-18T17:46:05.940Z,8.25
2023-01-18T17:48:32.965Z,8.37
2023-01-18T17:50:59.800Z,8.21
2023-01-18T17:53:26.799Z,7.89
2023-01-18T17:55:53.778Z,7.36
2023-01-18T17:58:21.826Z,7.58
2023-01-18T18:00:48.730Z,7.62
2023-01-18T18:03:16.008Z,7.73
2023-01-18T18:05:43.225Z,7.78
2023-01-18T18:08:10.365Z,7.79
2023-01-18T18:10:37.411Z,7.75
2023-01-18T18:13:04.444Z,7.80
2023-01-18T18:15:31.456Z,7.80
2023-01-18T18:17:58.354Z,7.25
2023-01-18T18:20:25.304Z,6.29
2023-01-18T18:22:52.138Z,6.26
2023-01-18T18:25:19.503Z,6.51
2023-01-18T18:27:47.312Z,6.74
2023-01-18T18:30:15.642Z,6.91
2023-01-18T18:32:42.491Z,7.04
2023-01-18T18:35:23.745Z,7.18
2023-01-18T18:37:52.031Z,7.16
2023-01-18T18:40:19.128Z,7.17
2023-01-18T18:42:56.404Z,7.16
2023-01-18T18:45:27.567Z,7.05
2023-01-18T18:47:54.434Z,7.08
2023-01-18T18:50:21.632Z,7.19
2023-01-18T18:52:48.809Z,7.33
2023-01-18T18:55:15.862Z,7.49
2023-01-18T18:57:42.728Z,7.56
2023-01-18T19:00:10.345Z,7.68
2023-01-18T19:02:38.084Z,7.75
2023-01-18T19:05:05.675Z,7.80
2023-01-18T19:07:56.288Z,7.78
2023-01-18T19:10:25.487Z,7.90
2023-01-18T19:12:52.300Z,7.93
2023-01-18T19:15:19.173Z,7.89
2023-01-18T19:17:49.565Z,8.03
2023-01-18T19:20:18.205Z,8.04
2023-01-18T19:22:48.681Z,8.07
2023-01-18T19:25:16.467Z,8.07
2023-01-18T19:27:43.827Z,8.04
2023-01-18T19:30:12.588Z,8.10
2023-01-18T19:32:40.188Z,8.00
2023-01-18T19:35:07.802Z,8.05
2023-01-18T19:37:34.664Z,7.96
2023-01-18T19:40:01.605Z,7.94
2023-01-18T19:42:28.960Z,7.95
2023-01-18T19:44:59.272Z,8.04
2023-01-18T19:47:26.429Z,8.03
2023-01-18T19:49:53.369Z,7.97
2023-01-18T19:52:20.364Z,7.86
2023-01-18T19:54:47.249Z,7.88
2023-01-18T19:57:14.235Z,7.87
2023-01-18T19:59:41.169Z,7.82
2023-01-18T20:02:08.283Z,7.82
2023-01-18T20:04:35.364Z,7.88
2023-01-18T20:07:02.324Z,7.88
2023-01-18T20:09:42.151Z,7.80
2023-01-18T20:12:10.838Z,7.75
2023-01-18T20:14:41.380Z,7.68
2023-01-18T20:17:11.202Z,7.62
2023-01-18T20:19:38.144Z,7.63
2023-01-18T20:22:05.045Z,7.59
2023-01-18T20:24:34.063Z,7.59
2023-01-18T20:27:14.537Z,7.65
2023-01-18T20:29:42.626Z,7.65
2023-01-18T20:32:16.263Z,7.64
2023-01-18T20:34:47.710Z,7.66
2023-01-18T20:37:15.927Z,7.65
2023-01-18T20:39:42.989Z,7.70
2023-01-18T20:42:10.058Z,7.71
2023-01-18T20:44:37.593Z,7.73
2023-01-18T20:47:05.201Z,7.80
2023-01-18T20:49:39.367Z,7.87
2023-01-18T20:52:07.818Z,7.92
2023-01-18T20:54:36.648Z,7.93
2023-01-18T20:57:06.905Z,7.82
2023-01-18T20:59:33.785Z,7.89
2023-01-18T21:02:01.063Z,8.00
2023-01-18T21:04:28.092Z,7.96
2023-01-18T21:06:55.502Z,7.83
2023-01-18T21:09:22.342Z,7.70
2023-01-18T21:11:49.299Z,7.41
2023-01-18T21:14:16.134Z,7.18
2023-01-18T21:16:43.834Z,7.17
2023-01-18T21:19:10.806Z,7.23
2023-01-18T21:21:37.635Z,7.27
2023-01-18T21:24:04.700Z,7.32
2023-01-18T21:26:31.786Z,7.39
2023-01-18T21:28:59.362Z,7.34
2023-01-18T21:31:26.354Z,7.34
2023-01-18T21:33:54.585Z,7.32
2023-01-18T21:36:21.546Z,7.22
2023-01-18T21:38:48.792Z,7.31
2023-01-18T21:41:15.985Z,7.36
2023-01-18T21:43:42.896Z,7.36
2023-01-18T21:46:11.389Z,7.38
2023-01-18T21:48:38.381Z,7.27
2023-01-18T21:51:06.113Z,7.18
2023-01-18T21:53:32.920Z,7.17
2023-01-18T21:56:00.117Z,7.20
2023-01-18T21:58:26.932Z,7.30
2023-01-18T22:00:53.863Z,7.24
2023-01-18T22:03:20.822Z,7.27
2023-01-18T22:05:47.732Z,7.31
2023-01-18T22:08:14.667Z,7.32
2023-01-18T22:10:41.558Z,7.24
2023-01-18T22:13:08.428Z,7.29
2023-01-18T22:15:35.312Z,7.39
2023-01-18T22:18:02.554Z,7.43
2023-01-18T22:20:30.992Z,7.45
2023-01-18T22:22:58.535Z,7.44
2023-01-18T22:25:25.447Z,7.49
2023-01-18T22:27:52.299Z,7.60
2023-01-18T22:30:19.218Z,7.47
2023-01-18T22:32:46.234Z,7.29
2023-01-18T22:35:13.193Z,7.38
2023-01-18T22:37:40.043Z,7.45
2023-01-18T22:40:08.020Z,7.04
2023-01-18T22:42:34.890Z,6.96
2023-01-18T22:45:02.192Z,6.85
2023-01-18T22:47:30.112Z,6.72
2023-01-18T22:49:56.885Z,6.63
2023-01-18T22:52:23.847Z,6.64
2023-01-18T22:54:50.658Z,6.66
2023-01-18T22:57:17.483Z,6.73
2023-01-18T22:59:44.356Z,6.82
2023-01-18T23:02:11.282Z,6.93
2023-01-18T23:04:38.145Z,6.87
2023-01-18T23:07:05.077Z,6.76
2023-01-18T23:09:32.034Z,6.91
2023-01-18T23:11:58.979Z,7.02
2023-01-18T23:14:25.880Z,6.98
2023-01-18T23:16:52.809Z,7.05
2023-01-18T23:19:20.523Z,7.00
2023-01-18T23:21:47.914Z,6.96
2023-01-18T23:24:14.743Z,7.01
2023-01-18T23:26:42.521Z,6.84
2023-01-18T23:29:09.396Z,6.80
2023-01-18T23:31:36.478Z,6.43
2023-01-18T23:34:03.397Z,6.20
2023-01-18T23:36:30.354Z,6.34
2023-01-18T23:38:57.335Z,6.51
2023-01-18T23:41:24.268Z,6.60
2023-01-18T23:43:51.244Z,6.58
2023-01-18T23:46:18.127Z,6.61
2023-01-18T23:48:44.956Z,6.59
2023-01-18T23:51:11.838Z,6.49
2023-01-18T23:53:38.685Z,6.48
2023-01-18T23:56:05.750Z,6.32
2023-01-18T23:58:32.723Z,6.22
